sensor_id;sensor_type;location;lat;lon;timestamp;temperature;humidity
10644;DHT22;5370;50.132;8.626;2023-02-18T00:01:40;13.50;91.80
10644;DHT22;5370;50.132;8.626;2023-02-18T00:04:06;13.50;91.90
10644;DHT22;5370;50.132;8.626;2023-02-18T00:06:34;13.50;91.90
10644;DHT22;5370;50.132;8.626;2023-02-18T00:09:00;13.50;92.00
10644;DHT22;5370;50.132;8.626;2023-02-18T00:11:28;13.50;91.90
10644;DHT22;5370;50.132;8.626;2023-02-18T00:13:59;13.50;91.90
10644;DHT22;5370;50.132;8.626;2023-02-18T00:16:27;13.50;91.90
10644;DHT22;5370;50.132;8.626;2023-02-18T00:19:01;13.40;91.90
10644;DHT22;5370;50.132;8.626;2023-02-18T00:21:27;13.40;91.80
10644;DHT22;5370;50.132;8.626;2023-02-18T00:23:53;13.40;91.80
10644;DHT22;5370;50.132;8.626;2023-02-18T00:26:19;13.40;91.70
10644;DHT22;5370;50.132;8.626;2023-02-18T00:28:46;13.30;91.50
10644;DHT22;5370;50.132;8.626;2023-02-18T00:31:24;13.30;91.40
10644;DHT22;5370;50.132;8.626;2023-02-18T00:33:50;13.20;91.30
10644;DHT22;5370;50.132;8.626;2023-02-18T00:36:18;13.10;91.20
10644;DHT22;5370;50.132;8.626;2023-02-18T00:38:45;13.00;91.20
10644;DHT22;5370;50.132;8.626;2023-02-18T00:41:10;13.00;91.20
10644;DHT22;5370;50.132;8.626;2023-02-18T00:43:36;12.90;91.30
10644;DHT22;5370;50.132;8.626;2023-02-18T00:46:01;12.90;91.40
10644;DHT22;5370;50.132;8.626;2023-02-18T00:48:27;12.90;91.60
10644;DHT22;5370;50.132;8.626;2023-02-18T00:50:53;12.90;91.70
10644;DHT22;5370;50.132;8.626;2023-02-18T00:53:18;12.90;91.80
10644;DHT22;5370;50.132;8.626;2023-02-18T00:55:45;12.90;92.00
10644;DHT22;5370;50.132;8.626;2023-02-18T00:58:13;12.90;92.10
10644;DHT22;5370;50.132;8.626;2023-02-18T01:00:38;13.00;92.20
10644;DHT22;5370;50.132;8.626;2023-02-18T01:03:05;13.00;92.30
10644;DHT22;5370;50.132;8.626;2023-02-18T01:05:33;13.00;92.30
10644;DHT22;5370;50.132;8.626;2023-02-18T01:07:59;13.00;92.30
10644;DHT22;5370;50.132;8.626;2023-02-18T01:10:24;13.00;92.50
10644;DHT22;5370;50.132;8.626;2023-02-18T01:12:50;12.90;92.50
10644;DHT22;5370;50.132;8.626;2023-02-18T01:15:16;12.90;92.60
10644;DHT22;5370;50.132;8.626;2023-02-18T01:17:42;12.90;92.70
10644;DHT22;5370;50.132;8.626;2023-02-18T01:20:09;12.80;92.80
10644;DHT22;5370;50.132;8.626;2023-02-18T01:22:36;12.80;93.00
10644;DHT22;5370;50.132;8.626;2023-02-18T01:25:02;12.80;93.20
10644;DHT22;5370;50.132;8.626;2023-02-18T01:27:28;12.70;93.30
10644;DHT22;5370;50.132;8.626;2023-02-18T01:29:54;12.80;93.60
10644;DHT22;5370;50.132;8.626;2023-02-18T01:32:19;12.80;93.70
10644;DHT22;5370;50.132;8.626;2023-02-18T01:34:45;12.80;93.80
10644;DHT22;5370;50.132;8.626;2023-02-18T01:37:11;12.80;93.80
10644;DHT22;5370;50.132;8.626;2023-02-18T01:39:36;12.80;93.90
10644;DHT22;5370;50.132;8.626;2023-02-18T01:42:02;12.80;93.70
10644;DHT22;5370;50.132;8.626;2023-02-18T01:44:28;12.80;93.60
10644;DHT22;5370;50.132;8.626;2023-02-18T01:46:54;12.80;93.50
10644;DHT22;5370;50.132;8.626;2023-02-18T01:49:23;12.80;93.50
10644;DHT22;5370;50.132;8.626;2023-02-18T01:51:53;12.80;93.40
10644;DHT22;5370;50.132;8.626;2023-02-18T01:54:33;12.80;93.50
10644;DHT22;5370;50.132;8.626;2023-02-18T01:57:06;12.80;93.50
10644;DHT22;5370;50.132;8.626;2023-02-18T01:59:37;12.80;93.60
10644;DHT22;5370;50.132;8.626;2023-02-18T02:02:06;12.80;93.50
10644;DHT22;5370;50.132;8.626;2023-02-18T02:04:33;12.80;93.40
10644;DHT22;5370;50.132;8.626;2023-02-18T02:06:58;12.70;93.30
10644;DHT22;5370;50.132;8.626;2023-02-18T02:09:26;12.70;93.30
10644;DHT22;5370;50.132;8.626;2023-02-18T02:29:41;12.70;92.80
10644;DHT22;5370;50.132;8.626;2023-02-18T02:32:36;12.70;92.60
10644;DHT22;5370;50.132;8.626;2023-02-18T02:35:15;12.70;92.50
10644;DHT22;5370;50.132;8.626;2023-02-18T02:37:51;12.70;92.40
10644;DHT22;5370;50.132;8.626;2023-02-18T02:40:47;12.70;92.30
10644;DHT22;5370;50.132;8.626;2023-02-18T02:46:20;12.70;92.10
10644;DHT22;5370;50.132;8.626;2023-02-18T02:49:24;12.70;92.00
10644;DHT22;5370;50.132;8.626;2023-02-18T02:52:02;12.80;92.00
10644;DHT22;5370;50.132;8.626;2023-02-18T02:54:29;12.70;92.00
10644;DHT22;5370;50.132;8.626;2023-02-18T02:57:50;12.70;92.00
10644;DHT22;5370;50.132;8.626;2023-02-18T02:59:57;12.70;92.00
10644;DHT22;5370;50.132;8.626;2023-02-18T03:10:53;12.90;91.80
10644;DHT22;5370;50.132;8.626;2023-02-18T03:16:40;12.90;91.50
10644;DHT22;5370;50.132;8.626;2023-02-18T03:22:02;12.90;91.40
10644;DHT22;5370;50.132;8.626;2023-02-18T03:24:33;12.90;91.30
10644;DHT22;5370;50.132;8.626;2023-02-18T03:27:16;12.90;91.20
10644;DHT22;5370;50.132;8.626;2023-02-18T03:29:45;12.90;91.20
10644;DHT22;5370;50.132;8.626;2023-02-18T03:32:15;12.90;91.20
10644;DHT22;5370;50.132;8.626;2023-02-18T03:34:46;12.90;91.10
10644;DHT22;5370;50.132;8.626;2023-02-18T03:37:13;12.90;91.10
10644;DHT22;5370;50.132;8.626;2023-02-18T03:39:44;12.90;91.00
10644;DHT22;5370;50.132;8.626;2023-02-18T03:42:11;12.90;91.00
10644;DHT22;5370;50.132;8.626;2023-02-18T03:44:36;12.90;91.00
10644;DHT22;5370;50.132;8.626;2023-02-18T03:47:02;12.90;91.00
10644;DHT22;5370;50.132;8.626;2023-02-18T03:49:28;13.00;91.00
10644;DHT22;5370;50.132;8.626;2023-02-18T03:51:53;13.00;91.20
10644;DHT22;5370;50.132;8.626;2023-02-18T03:54:19;13.00;90.90
10644;DHT22;5370;50.132;8.626;2023-02-18T03:56:44;13.00;90.80
10644;DHT22;5370;50.132;8.626;2023-02-18T03:59:11;13.00;90.80
10644;DHT22;5370;50.132;8.626;2023-02-18T04:01:36;13.00;90.70
10644;DHT22;5370;50.132;8.626;2023-02-18T04:04:02;13.00;90.70
10644;DHT22;5370;50.132;8.626;2023-02-18T04:06:27;13.00;90.60
10644;DHT22;5370;50.132;8.626;2023-02-18T04:08:53;13.00;90.60
10644;DHT22;5370;50.132;8.626;2023-02-18T04:11:19;13.00;90.60
10644;DHT22;5370;50.132;8.626;2023-02-18T04:13:44;13.00;90.60
10644;DHT22;5370;50.132;8.626;2023-02-18T04:16:10;13.00;90.60
10644;DHT22;5370;50.132;8.626;2023-02-18T04:18:35;13.00;90.60
10644;DHT22;5370;50.132;8.626;2023-02-18T04:21:01;13.00;90.60
10644;DHT22;5370;50.132;8.626;2023-02-18T04:23:27;13.00;90.60
10644;DHT22;5370;50.132;8.626;2023-02-18T04:25:52;13.00;90.60
10644;DHT22;5370;50.132;8.626;2023-02-18T04:28:18;13.00;90.60
10644;DHT22;5370;50.132;8.626;2023-02-18T04:30:44;13.00;90.60
10644;DHT22;5370;50.132;8.626;2023-02-18T04:33:10;13.00;90.50
10644;DHT22;5370;50.132;8.626;2023-02-18T04:35:36;13.00;90.50
10644;DHT22;5370;50.132;8.626;2023-02-18T04:38:02;13.00;90.50
10644;DHT22;5370;50.132;8.626;2023-02-18T04:40:28;13.00;90.40
10644;DHT22;5370;50.132;8.626;2023-02-18T04:42:59;13.00;90.40
10644;DHT22;5370;50.132;8.626;2023-02-18T04:45:25;13.00;90.40
10644;DHT22;5370;50.132;8.626;2023-02-18T04:47:51;13.00;90.40
10644;DHT22;5370;50.132;8.626;2023-02-18T04:50:17;13.00;90.30
10644;DHT22;5370;50.132;8.626;2023-02-18T04:52:43;13.00;90.30
10644;DHT22;5370;50.132;8.626;2023-02-18T04:55:09;13.00;90.30
10644;DHT22;5370;50.132;8.626;2023-02-18T04:57:34;13.00;90.20
10644;DHT22;5370;50.132;8.626;2023-02-18T05:00:00;13.00;90.20
10644;DHT22;5370;50.132;8.626;2023-02-18T05:02:25;13.00;90.20
10644;DHT22;5370;50.132;8.626;2023-02-18T05:04:51;13.00;90.20
10644;DHT22;5370;50.132;8.626;2023-02-18T05:07:17;13.00;90.20
10644;DHT22;5370;50.132;8.626;2023-02-18T05:09:42;13.00;90.20
10644;DHT22;5370;50.132;8.626;2023-02-18T05:12:08;13.00;90.20
10644;DHT22;5370;50.132;8.626;2023-02-18T05:14:33;13.00;90.30
10644;DHT22;5370;50.132;8.626;2023-02-18T05:16:59;13.00;90.30
10644;DHT22;5370;50.132;8.626;2023-02-18T05:19:24;13.00;90.40
10644;DHT22;5370;50.132;8.626;2023-02-18T05:21:50;13.00;90.60
10644;DHT22;5370;50.132;8.626;2023-02-18T05:24:16;13.00;90.70
10644;DHT22;5370;50.132;8.626;2023-02-18T05:26:41;12.90;90.80
10644;DHT22;5370;50.132;8.626;2023-02-18T05:29:07;12.90;90.90
10644;DHT22;5370;50.132;8.626;2023-02-18T05:31:32;12.90;91.10
10644;DHT22;5370;50.132;8.626;2023-02-18T05:33:58;12.90;91.30
10644;DHT22;5370;50.132;8.626;2023-02-18T05:36:23;12.90;91.50
10644;DHT22;5370;50.132;8.626;2023-02-18T05:38:49;12.80;91.60
10644;DHT22;5370;50.132;8.626;2023-02-18T05:41:14;12.80;91.70
10644;DHT22;5370;50.132;8.626;2023-02-18T05:43:40;12.80;91.80
10644;DHT22;5370;50.132;8.626;2023-02-18T05:46:34;12.80;91.90
10644;DHT22;5370;50.132;8.626;2023-02-18T05:49:00;12.80;92.00
10644;DHT22;5370;50.132;8.626;2023-02-18T05:51:26;12.70;92.00
10644;DHT22;5370;50.132;8.626;2023-02-18T05:53:51;12.70;92.00
10644;DHT22;5370;50.132;8.626;2023-02-18T05:56:17;12.70;92.10
10644;DHT22;5370;50.132;8.626;2023-02-18T05:58:42;12.70;92.40
10644;DHT22;5370;50.132;8.626;2023-02-18T06:01:08;12.70;92.10
10644;DHT22;5370;50.132;8.626;2023-02-18T06:03:33;12.70;92.10
10644;DHT22;5370;50.132;8.626;2023-02-18T06:05:59;12.70;92.10
10644;DHT22;5370;50.132;8.626;2023-02-18T06:08:25;12.70;92.10
10644;DHT22;5370;50.132;8.626;2023-02-18T06:10:50;12.70;92.10
10644;DHT22;5370;50.132;8.626;2023-02-18T06:13:16;12.70;92.10
10644;DHT22;5370;50.132;8.626;2023-02-18T06:15:42;12.80;92.20
10644;DHT22;5370;50.132;8.626;2023-02-18T06:18:07;12.80;92.10
10644;DHT22;5370;50.132;8.626;2023-02-18T06:20:33;12.80;92.10
10644;DHT22;5370;50.132;8.626;2023-02-18T06:22:58;12.80;92.10
10644;DHT22;5370;50.132;8.626;2023-02-18T06:25:24;12.80;92.10
10644;DHT22;5370;50.132;8.626;2023-02-18T06:27:49;12.80;92.00
10644;DHT22;5370;50.132;8.626;2023-02-18T06:30:16;12.80;91.90
10644;DHT22;5370;50.132;8.626;2023-02-18T06:32:42;12.80;91.80
10644;DHT22;5370;50.132;8.626;2023-02-18T06:35:07;12.80;91.70
10644;DHT22;5370;50.132;8.626;2023-02-18T06:37:33;12.80;91.50
10644;DHT22;5370;50.132;8.626;2023-02-18T06:39:58;12.80;91.40
10644;DHT22;5370;50.132;8.626;2023-02-18T06:42:24;12.80;91.30
10644;DHT22;5370;50.132;8.626;2023-02-18T06:44:49;12.80;91.20
10644;DHT22;5370;50.132;8.626;2023-02-18T06:47:15;12.80;91.00
10644;DHT22;5370;50.132;8.626;2023-02-18T06:49:40;12.80;90.80
10644;DHT22;5370;50.132;8.626;2023-02-18T06:52:06;12.80;90.60
10644;DHT22;5370;50.132;8.626;2023-02-18T06:54:32;12.80;90.40
10644;DHT22;5370;50.132;8.626;2023-02-18T06:56:58;12.80;90.20
10644;DHT22;5370;50.132;8.626;2023-02-18T06:59:24;12.80;90.10
10644;DHT22;5370;50.132;8.626;2023-02-18T07:01:50;12.80;89.60
10644;DHT22;5370;50.132;8.626;2023-02-18T07:04:15;12.80;89.20
10644;DHT22;5370;50.132;8.626;2023-02-18T07:06:41;12.80;88.50
10644;DHT22;5370;50.132;8.626;2023-02-18T07:09:06;12.90;87.90
10644;DHT22;5370;50.132;8.626;2023-02-18T07:11:32;12.90;87.30
10644;DHT22;5370;50.132;8.626;2023-02-18T07:13:57;12.90;86.70
10644;DHT22;5370;50.132;8.626;2023-02-18T07:16:23;12.90;85.90
10644;DHT22;5370;50.132;8.626;2023-02-18T07:18:48;12.90;85.10
10644;DHT22;5370;50.132;8.626;2023-02-18T07:21:14;12.90;84.50
10644;DHT22;5370;50.132;8.626;2023-02-18T07:23:40;12.90;84.00
10644;DHT22;5370;50.132;8.626;2023-02-18T07:26:07;12.90;83.50
10644;DHT22;5370;50.132;8.626;2023-02-18T07:28:33;12.90;82.90
10644;DHT22;5370;50.132;8.626;2023-02-18T07:30:59;13.00;82.60
10644;DHT22;5370;50.132;8.626;2023-02-18T07:33:24;13.00;82.20
10644;DHT22;5370;50.132;8.626;2023-02-18T07:35:57;13.00;81.10
10644;DHT22;5370;50.132;8.626;2023-02-18T07:38:24;13.10;80.40
10644;DHT22;5370;50.132;8.626;2023-02-18T07:40:50;13.10;79.50
10644;DHT22;5370;50.132;8.626;2023-02-18T07:43:16;13.10;78.40
10644;DHT22;5370;50.132;8.626;2023-02-18T07:45:42;13.20;77.90
10644;DHT22;5370;50.132;8.626;2023-02-18T07:48:07;13.20;77.10
10644;DHT22;5370;50.132;8.626;2023-02-18T07:50:33;13.20;76.20
10644;DHT22;5370;50.132;8.626;2023-02-18T07:53:02;13.30;75.90
10644;DHT22;5370;50.132;8.626;2023-02-18T07:55:28;13.30;75.30
10644;DHT22;5370;50.132;8.626;2023-02-18T07:58:12;13.30;74.70
10644;DHT22;5370;50.132;8.626;2023-02-18T08:00:37;13.40;74.50
10644;DHT22;5370;50.132;8.626;2023-02-18T08:03:03;13.40;74.20
10644;DHT22;5370;50.132;8.626;2023-02-18T08:05:28;13.40;73.60
10644;DHT22;5370;50.132;8.626;2023-02-18T08:07:54;13.30;72.90
10644;DHT22;5370;50.132;8.626;2023-02-18T08:10:20;13.30;72.60
10644;DHT22;5370;50.132;8.626;2023-02-18T08:12:46;13.30;72.10
10644;DHT22;5370;50.132;8.626;2023-02-18T08:15:12;13.30;71.90
10644;DHT22;5370;50.132;8.626;2023-02-18T08:17:37;13.30;71.40
10644;DHT22;5370;50.132;8.626;2023-02-18T08:20:04;13.30;71.20
10644;DHT22;5370;50.132;8.626;2023-02-18T08:22:29;13.30;70.60
10644;DHT22;5370;50.132;8.626;2023-02-18T08:24:55;13.30;70.40
10644;DHT22;5370;50.132;8.626;2023-02-18T08:27:21;13.40;70.30
10644;DHT22;5370;50.132;8.626;2023-02-18T08:29:46;13.40;70.40
10644;DHT22;5370;50.132;8.626;2023-02-18T08:32:12;13.50;70.00
10644;DHT22;5370;50.132;8.626;2023-02-18T08:34:38;13.60;70.00
10644;DHT22;5370;50.132;8.626;2023-02-18T08:37:04;13.70;69.70
10644;DHT22;5370;50.132;8.626;2023-02-18T08:39:36;13.90;69.00
10644;DHT22;5370;50.132;8.626;2023-02-18T08:42:02;14.00;68.20
10644;DHT22;5370;50.132;8.626;2023-02-18T08:44:28;14.20;67.90
10644;DHT22;5370;50.132;8.626;2023-02-18T08:46:54;14.30;66.80
10644;DHT22;5370;50.132;8.626;2023-02-18T08:49:19;14.30;65.80
10644;DHT22;5370;50.132;8.626;2023-02-18T08:51:46;14.30;64.70
10644;DHT22;5370;50.132;8.626;2023-02-18T08:54:12;14.30;64.80
10644;DHT22;5370;50.132;8.626;2023-02-18T08:56:38;14.30;65.00
10644;DHT22;5370;50.132;8.626;2023-02-18T08:59:04;14.30;64.60
10644;DHT22;5370;50.132;8.626;2023-02-18T09:01:29;14.30;64.60
10644;DHT22;5370;50.132;8.626;2023-02-18T09:03:55;14.30;66.00
10644;DHT22;5370;50.132;8.626;2023-02-18T09:06:21;14.50;65.80
10644;DHT22;5370;50.132;8.626;2023-02-18T09:08:46;14.70;64.80
10644;DHT22;5370;50.132;8.626;2023-02-18T09:11:12;14.60;63.30
10644;DHT22;5370;50.132;8.626;2023-02-18T09:13:38;14.60;63.10
10644;DHT22;5370;50.132;8.626;2023-02-18T09:16:07;14.50;63.10
10644;DHT22;5370;50.132;8.626;2023-02-18T09:18:33;14.50;63.00
10644;DHT22;5370;50.132;8.626;2023-02-18T09:21:04;14.50;62.70
10644;DHT22;5370;50.132;8.626;2023-02-18T09:23:31;14.40;62.80
10644;DHT22;5370;50.132;8.626;2023-02-18T09:25:57;14.40;62.80
10644;DHT22;5370;50.132;8.626;2023-02-18T09:28:23;14.40;62.60
10644;DHT22;5370;50.132;8.626;2023-02-18T09:30:48;14.40;62.50
10644;DHT22;5370;50.132;8.626;2023-02-18T09:33:15;14.50;62.60
10644;DHT22;5370;50.132;8.626;2023-02-18T09:35:42;14.50;62.30
10644;DHT22;5370;50.132;8.626;2023-02-18T09:38:10;14.40;61.90
10644;DHT22;5370;50.132;8.626;2023-02-18T09:40:39;14.40;61.80
10644;DHT22;5370;50.132;8.626;2023-02-18T09:43:06;14.40;61.80
10644;DHT22;5370;50.132;8.626;2023-02-18T09:45:37;14.30;61.70
10644;DHT22;5370;50.132;8.626;2023-02-18T09:48:03;14.30;62.10
10644;DHT22;5370;50.132;8.626;2023-02-18T09:50:31;14.20;61.90
10644;DHT22;5370;50.132;8.626;2023-02-18T09:52:59;14.10;62.00
10644;DHT22;5370;50.132;8.626;2023-02-18T09:55:37;14.10;62.40
10644;DHT22;5370;50.132;8.626;2023-02-18T09:58:07;14.00;62.30
10644;DHT22;5370;50.132;8.626;2023-02-18T10:00:39;14.00;62.60
10644;DHT22;5370;50.132;8.626;2023-02-18T10:03:14;13.90;62.70
10644;DHT22;5370;50.132;8.626;2023-02-18T10:05:47;13.90;62.70
10644;DHT22;5370;50.132;8.626;2023-02-18T10:08:20;13.90;62.80
10644;DHT22;5370;50.132;8.626;2023-02-18T10:10:47;14.00;62.90
10644;DHT22;5370;50.132;8.626;2023-02-18T10:13:16;14.00;62.80
10644;DHT22;5370;50.132;8.626;2023-02-18T10:15:43;14.00;62.60
10644;DHT22;5370;50.132;8.626;2023-02-18T10:18:28;14.00;62.60
10644;DHT22;5370;50.132;8.626;2023-02-18T10:21:02;13.90;62.60
10644;DHT22;5370;50.132;8.626;2023-02-18T10:23:31;13.90;62.60
10644;DHT22;5370;50.132;8.626;2023-02-18T10:25:58;13.90;62.60
10644;DHT22;5370;50.132;8.626;2023-02-18T10:28:26;14.00;62.70
10644;DHT22;5370;50.132;8.626;2023-02-18T10:31:07;14.00;63.20
10644;DHT22;5370;50.132;8.626;2023-02-18T10:33:48;14.00;63.10
10644;DHT22;5370;50.132;8.626;2023-02-18T10:41:59;14.10;62.80
10644;DHT22;5370;50.132;8.626;2023-02-18T10:52:56;14.10;62.20
10644;DHT22;5370;50.132;8.626;2023-02-18T10:55:36;14.10;62.20
10644;DHT22;5370;50.132;8.626;2023-02-18T10:58:02;14.10;62.20
10644;DHT22;5370;50.132;8.626;2023-02-18T11:00:34;14.10;62.00
10644;DHT22;5370;50.132;8.626;2023-02-18T11:03:15;14.10;62.10
10644;DHT22;5370;50.132;8.626;2023-02-18T11:05:42;14.10;62.10
10644;DHT22;5370;50.132;8.626;2023-02-18T11:08:15;14.00;62.20
10644;DHT22;5370;50.132;8.626;2023-02-18T11:10:44;14.10;62.60
10644;DHT22;5370;50.132;8.626;2023-02-18T11:13:13;14.10;62.50
10644;DHT22;5370;50.132;8.626;2023-02-18T11:15:54;14.10;62.00
10644;DHT22;5370;50.132;8.626;2023-02-18T11:18:29;14.10;61.80
10644;DHT22;5370;50.132;8.626;2023-02-18T11:21:01;14.10;61.90
10644;DHT22;5370;50.132;8.626;2023-02-18T11:23:28;14.00;61.60
10644;DHT22;5370;50.132;8.626;2023-02-18T11:26:01;14.00;61.50
10644;DHT22;5370;50.132;8.626;2023-02-18T11:31:07;14.00;61.90
10644;DHT22;5370;50.132;8.626;2023-02-18T11:33:40;14.00;61.90
10644;DHT22;5370;50.132;8.626;2023-02-18T11:36:19;14.00;61.90
10644;DHT22;5370;50.132;8.626;2023-02-18T11:41:22;14.00;61.90
10644;DHT22;5370;50.132;8.626;2023-02-18T11:43:53;14.00;61.60
10644;DHT22;5370;50.132;8.626;2023-02-18T11:46:22;14.00;61.60
10644;DHT22;5370;50.132;8.626;2023-02-18T11:48:49;13.90;61.70
10644;DHT22;5370;50.132;8.626;2023-02-18T11:51:18;13.90;61.70
10644;DHT22;5370;50.132;8.626;2023-02-18T11:56:28;13.70;61.70
10644;DHT22;5370;50.132;8.626;2023-02-18T11:58:54;13.70;61.90
10644;DHT22;5370;50.132;8.626;2023-02-18T12:01:42;13.60;61.90
10644;DHT22;5370;50.132;8.626;2023-02-18T12:04:15;13.60;62.10
10644;DHT22;5370;50.132;8.626;2023-02-18T12:06:49;13.60;62.10
10644;DHT22;5370;50.132;8.626;2023-02-18T12:09:24;13.50;62.20
10644;DHT22;5370;50.132;8.626;2023-02-18T12:12:11;13.50;62.20
10644;DHT22;5370;50.132;8.626;2023-02-18T12:14:37;13.50;62.30
10644;DHT22;5370;50.132;8.626;2023-02-18T12:23:14;13.60;62.50
10644;DHT22;5370;50.132;8.626;2023-02-18T12:29:07;13.70;63.90
10644;DHT22;5370;50.132;8.626;2023-02-18T12:31:41;13.90;64.20
10644;DHT22;5370;50.132;8.626;2023-02-18T12:34:22;14.10;63.60
10644;DHT22;5370;50.132;8.626;2023-02-18T12:42:30;14.30;61.80
10644;DHT22;5370;50.132;8.626;2023-02-18T12:45:25;14.30;61.70
10644;DHT22;5370;50.132;8.626;2023-02-18T12:50:59;14.20;62.50
10644;DHT22;5370;50.132;8.626;2023-02-18T12:56:32;14.30;62.30
10644;DHT22;5370;50.132;8.626;2023-02-18T12:59:38;14.30;62.30
10644;DHT22;5370;50.132;8.626;2023-02-18T13:02:51;14.20;62.30
10644;DHT22;5370;50.132;8.626;2023-02-18T13:11:34;14.30;64.40
10644;DHT22;5370;50.132;8.626;2023-02-18T13:14:28;14.30;64.50
10644;DHT22;5370;50.132;8.626;2023-02-18T13:16:57;14.30;64.70
10644;DHT22;5370;50.132;8.626;2023-02-18T13:19:33;14.30;64.90
10644;DHT22;5370;50.132;8.626;2023-02-18T13:22:05;14.30;65.00
10644;DHT22;5370;50.132;8.626;2023-02-18T13:24:36;14.30;65.70
10644;DHT22;5370;50.132;8.626;2023-02-18T13:33:16;14.40;65.10
10644;DHT22;5370;50.132;8.626;2023-02-18T13:39:08;14.40;65.10
10644;DHT22;5370;50.132;8.626;2023-02-18T13:41:26;14.50;64.90
10644;DHT22;5370;50.132;8.626;2023-02-18T13:43:52;14.40;64.60
10644;DHT22;5370;50.132;8.626;2023-02-18T13:46:22;14.50;64.70
10644;DHT22;5370;50.132;8.626;2023-02-18T13:48:51;14.40;64.40
10644;DHT22;5370;50.132;8.626;2023-02-18T13:51:41;14.40;64.20
10644;DHT22;5370;50.132;8.626;2023-02-18T13:56:47;14.20;64.40
10644;DHT22;5370;50.132;8.626;2023-02-18T14:01:48;14.00;64.80
10644;DHT22;5370;50.132;8.626;2023-02-18T14:10:27;13.90;65.90
10644;DHT22;5370;50.132;8.626;2023-02-18T14:31:23;13.60;69.00
10644;DHT22;5370;50.132;8.626;2023-02-18T14:36:56;13.60;69.30
10644;DHT22;5370;50.132;8.626;2023-02-18T14:39:58;13.60;69.40
10644;DHT22;5370;50.132;8.626;2023-02-18T14:45:46;13.70;69.40
10644;DHT22;5370;50.132;8.626;2023-02-18T14:48:37;13.70;69.40
10644;DHT22;5370;50.132;8.626;2023-02-18T14:51:06;13.70;70.00
10644;DHT22;5370;50.132;8.626;2023-02-18T14:53:32;13.70;69.10
10644;DHT22;5370;50.132;8.626;2023-02-18T14:56:03;13.70;68.90
10644;DHT22;5370;50.132;8.626;2023-02-18T14:58:40;13.80;69.60
10644;DHT22;5370;50.132;8.626;2023-02-18T15:01:19;13.80;68.80
10644;DHT22;5370;50.132;8.626;2023-02-18T15:03:47;13.80;68.70
10644;DHT22;5370;50.132;8.626;2023-02-18T15:06:32;13.80;68.50
10644;DHT22;5370;50.132;8.626;2023-02-18T15:08:59;13.80;68.40
10644;DHT22;5370;50.132;8.626;2023-02-18T15:11:38;13.70;68.20
10644;DHT22;5370;50.132;8.626;2023-02-18T15:14:13;13.70;68.10
10644;DHT22;5370;50.132;8.626;2023-02-18T15:16:41;13.70;68.30
10644;DHT22;5370;50.132;8.626;2023-02-18T15:19:14;13.60;68.40
10644;DHT22;5370;50.132;8.626;2023-02-18T15:21:43;13.70;68.60
10644;DHT22;5370;50.132;8.626;2023-02-18T15:26:44;13.70;68.70
10644;DHT22;5370;50.132;8.626;2023-02-18T15:29:17;13.70;68.50
10644;DHT22;5370;50.132;8.626;2023-02-18T15:31:45;13.70;68.50
10644;DHT22;5370;50.132;8.626;2023-02-18T15:34:33;13.70;68.40
10644;DHT22;5370;50.132;8.626;2023-02-18T15:37:00;13.70;68.40
10644;DHT22;5370;50.132;8.626;2023-02-18T15:39:27;13.60;68.10
10644;DHT22;5370;50.132;8.626;2023-02-18T15:41:55;13.60;68.20
10644;DHT22;5370;50.132;8.626;2023-02-18T15:44:24;13.60;68.10
10644;DHT22;5370;50.132;8.626;2023-02-18T15:46:52;13.50;68.10
10644;DHT22;5370;50.132;8.626;2023-02-18T15:49:22;13.50;68.70
10644;DHT22;5370;50.132;8.626;2023-02-18T15:51:49;13.50;68.00
10644;DHT22;5370;50.132;8.626;2023-02-18T15:54:18;13.50;68.00
10644;DHT22;5370;50.132;8.626;2023-02-18T15:56:45;13.40;68.20
10644;DHT22;5370;50.132;8.626;2023-02-18T16:02:18;13.50;68.90
10644;DHT22;5370;50.132;8.626;2023-02-18T16:04:46;13.50;69.50
10644;DHT22;5370;50.132;8.626;2023-02-18T16:09:47;13.50;68.50
10644;DHT22;5370;50.132;8.626;2023-02-18T16:12:30;13.40;68.20
10644;DHT22;5370;50.132;8.626;2023-02-18T16:14:57;13.50;68.30
10644;DHT22;5370;50.132;8.626;2023-02-18T16:17:27;13.40;68.10
10644;DHT22;5370;50.132;8.626;2023-02-18T16:20:13;13.40;68.10
10644;DHT22;5370;50.132;8.626;2023-02-18T16:22:45;13.40;68.10
10644;DHT22;5370;50.132;8.626;2023-02-18T16:25:20;13.40;68.10
10644;DHT22;5370;50.132;8.626;2023-02-18T16:27:53;13.40;68.50
10644;DHT22;5370;50.132;8.626;2023-02-18T16:30:28;13.40;68.60
10644;DHT22;5370;50.132;8.626;2023-02-18T16:32:54;13.30;68.50
10644;DHT22;5370;50.132;8.626;2023-02-18T16:35:21;13.30;68.60
10644;DHT22;5370;50.132;8.626;2023-02-18T16:37:47;13.30;68.80
10644;DHT22;5370;50.132;8.626;2023-02-18T16:42:52;13.30;68.90
10644;DHT22;5370;50.132;8.626;2023-02-18T16:45:19;13.30;68.90
10644;DHT22;5370;50.132;8.626;2023-02-18T16:47:47;13.30;69.30
10644;DHT22;5370;50.132;8.626;2023-02-18T16:50:18;13.30;69.40
10644;DHT22;5370;50.132;8.626;2023-02-18T16:52:44;13.30;69.30
10644;DHT22;5370;50.132;8.626;2023-02-18T16:55:22;13.30;69.40
10644;DHT22;5370;50.132;8.626;2023-02-18T16:57:48;13.30;69.50
10644;DHT22;5370;50.132;8.626;2023-02-18T17:00:15;13.30;69.40
10644;DHT22;5370;50.132;8.626;2023-02-18T17:02:43;13.20;69.20
10644;DHT22;5370;50.132;8.626;2023-02-18T17:05:16;13.20;69.20
10644;DHT22;5370;50.132;8.626;2023-02-18T17:07:42;13.20;69.30
10644;DHT22;5370;50.132;8.626;2023-02-18T17:10:08;13.20;69.30
10644;DHT22;5370;50.132;8.626;2023-02-18T17:12:34;13.10;69.40
10644;DHT22;5370;50.132;8.626;2023-02-18T17:15:01;13.10;69.40
10644;DHT22;5370;50.132;8.626;2023-02-18T17:17:27;13.10;69.50
10644;DHT22;5370;50.132;8.626;2023-02-18T17:19:52;13.10;69.60
10644;DHT22;5370;50.132;8.626;2023-02-18T17:22:18;13.10;69.70
10644;DHT22;5370;50.132;8.626;2023-02-18T17:24:44;13.00;69.70
10644;DHT22;5370;50.132;8.626;2023-02-18T17:27:09;13.00;69.80
10644;DHT22;5370;50.132;8.626;2023-02-18T17:29:35;13.00;69.90
10644;DHT22;5370;50.132;8.626;2023-02-18T17:32:01;13.00;70.00
10644;DHT22;5370;50.132;8.626;2023-02-18T17:34:29;12.90;70.00
10644;DHT22;5370;50.132;8.626;2023-02-18T17:36:57;12.90;70.10
10644;DHT22;5370;50.132;8.626;2023-02-18T17:39:22;12.90;70.20
10644;DHT22;5370;50.132;8.626;2023-02-18T17:41:49;12.90;70.30
10644;DHT22;5370;50.132;8.626;2023-02-18T17:44:17;12.90;70.40
10644;DHT22;5370;50.132;8.626;2023-02-18T17:46:43;12.80;70.40
10644;DHT22;5370;50.132;8.626;2023-02-18T17:49:08;12.80;70.40
10644;DHT22;5370;50.132;8.626;2023-02-18T17:51:34;12.80;70.40
10644;DHT22;5370;50.132;8.626;2023-02-18T17:54:01;12.80;70.40
10644;DHT22;5370;50.132;8.626;2023-02-18T17:56:27;12.80;70.50
10644;DHT22;5370;50.132;8.626;2023-02-18T17:58:53;12.80;70.70
10644;DHT22;5370;50.132;8.626;2023-02-18T18:01:18;12.80;70.70
10644;DHT22;5370;50.132;8.626;2023-02-18T18:03:45;12.80;70.70
10644;DHT22;5370;50.132;8.626;2023-02-18T18:06:18;12.80;70.70
10644;DHT22;5370;50.132;8.626;2023-02-18T18:08:45;12.70;71.40
10644;DHT22;5370;50.132;8.626;2023-02-18T18:11:16;12.70;70.70
10644;DHT22;5370;50.132;8.626;2023-02-18T18:13:42;12.70;70.90
10644;DHT22;5370;50.132;8.626;2023-02-18T18:16:10;12.70;71.00
10644;DHT22;5370;50.132;8.626;2023-02-18T18:18:36;12.70;71.10